sensor_id;sensor_type;location;lat;lon;timestamp;P1;durP1;ratioP1;P2;durP2;ratioP2
66628;SDS011;53532;53.084;6.352;2023-02-13T00:01:45;30.27;;;20.67;;
66628;SDS011;53532;53.084;6.352;2023-02-13T00:04:11;32.03;;;21.67;;
66628;SDS011;53532;53.084;6.352;2023-02-13T00:06:37;34.92;;;22.08;;
66628;SDS011;53532;53.084;6.352;2023-02-13T00:09:03;35.10;;;22.65;;
66628;SDS011;53532;53.084;6.352;2023-02-13T00:11:29;33.35;;;21.33;;
66628;SDS011;53532;53.084;6.352;2023-02-13T00:13:57;35.20;;;21.42;;
66628;SDS011;53532;53.084;6.352;2023-02-13T00:16:23;36.50;;;21.63;;
66628;SDS011;53532;53.084;6.352;2023-02-13T00:18:50;39.47;;;22.70;;
66628;SDS011;53532;53.084;6.352;2023-02-13T00:21:17;33.85;;;20.55;;
66628;SDS011;53532;53.084;6.352;2023-02-13T00:23:43;38.95;;;22.35;;
66628;SDS011;53532;53.084;6.352;2023-02-13T00:26:10;37.78;;;21.77;;
66628;SDS011;53532;53.084;6.352;2023-02-13T00:28:37;36.20;;;20.90;;
66628;SDS011;53532;53.084;6.352;2023-02-13T00:31:04;35.92;;;21.35;;
66628;SDS011;53532;53.084;6.352;2023-02-13T00:33:31;36.08;;;20.30;;
66628;SDS011;53532;53.084;6.352;2023-02-13T00:36:05;36.42;;;20.33;;
66628;SDS011;53532;53.084;6.352;2023-02-13T00:38:31;36.92;;;20.98;;
66628;SDS011;53532;53.084;6.352;2023-02-13T00:40:57;34.63;;;20.38;;
66628;SDS011;53532;53.084;6.352;2023-02-13T00:43:24;38.47;;;21.95;;
66628;SDS011;53532;53.084;6.352;2023-02-13T00:45:50;34.72;;;20.85;;
66628;SDS011;53532;53.084;6.352;2023-02-13T00:48:16;36.88;;;21.05;;
66628;SDS011;53532;53.084;6.352;2023-02-13T00:50:42;36.58;;;20.63;;
66628;SDS011;53532;53.084;6.352;2023-02-13T00:53:11;34.83;;;20.30;;
66628;SDS011;53532;53.084;6.352;2023-02-13T00:55:37;35.88;;;20.52;;
66628;SDS011;53532;53.084;6.352;2023-02-13T00:58:03;35.55;;;20.85;;
66628;SDS011;53532;53.084;6.352;2023-02-13T01:00:30;34.88;;;20.88;;
66628;SDS011;53532;53.084;6.352;2023-02-13T01:02:56;37.90;;;21.30;;
66628;SDS011;53532;53.084;6.352;2023-02-13T01:05:22;38.80;;;21.52;;
66628;SDS011;53532;53.084;6.352;2023-02-13T01:07:48;35.45;;;20.00;;
66628;SDS011;53532;53.084;6.352;2023-02-13T01:10:17;34.17;;;19.55;;
66628;SDS011;53532;53.084;6.352;2023-02-13T01:12:44;36.90;;;21.38;;
66628;SDS011;53532;53.084;6.352;2023-02-13T01:15:10;36.15;;;20.60;;
66628;SDS011;53532;53.084;6.352;2023-02-13T01:17:36;34.70;;;19.65;;
66628;SDS011;53532;53.084;6.352;2023-02-13T01:20:05;37.25;;;21.77;;
66628;SDS011;53532;53.084;6.352;2023-02-13T01:22:32;37.75;;;21.25;;
66628;SDS011;53532;53.084;6.352;2023-02-13T01:24:58;36.60;;;20.83;;
66628;SDS011;53532;53.084;6.352;2023-02-13T01:27:25;37.00;;;20.63;;
66628;SDS011;53532;53.084;6.352;2023-02-13T01:29:52;36.95;;;20.58;;
66628;SDS011;53532;53.084;6.352;2023-02-13T01:32:18;36.78;;;20.92;;
66628;SDS011;53532;53.084;6.352;2023-02-13T01:34:44;38.00;;;20.65;;
66628;SDS011;53532;53.084;6.352;2023-02-13T01:37:11;36.50;;;21.38;;
66628;SDS011;53532;53.084;6.352;2023-02-13T01:39:37;37.35;;;21.42;;
66628;SDS011;53532;53.084;6.352;2023-02-13T01:42:03;36.45;;;20.83;;
66628;SDS011;53532;53.084;6.352;2023-02-13T01:47:21;36.95;;;21.08;;
66628;SDS011;53532;53.084;6.352;2023-02-13T01:49:48;34.40;;;20.15;;
66628;SDS011;53532;53.084;6.352;2023-02-13T01:52:16;35.38;;;19.70;;
66628;SDS011;53532;53.084;6.352;2023-02-13T01:54:42;35.60;;;20.75;;
66628;SDS011;53532;53.084;6.352;2023-02-13T01:57:10;35.88;;;20.77;;
66628;SDS011;53532;53.084;6.352;2023-02-13T01:59:39;36.72;;;21.15;;
66628;SDS011;53532;53.084;6.352;2023-02-13T02:02:08;37.45;;;21.88;;
66628;SDS011;53532;53.084;6.352;2023-02-13T02:04:36;39.10;;;22.48;;
66628;SDS011;53532;53.084;6.352;2023-02-13T02:07:05;34.90;;;21.02;;
66628;SDS011;53532;53.084;6.352;2023-02-13T02:09:32;37.97;;;21.48;;
66628;SDS011;53532;53.084;6.352;2023-02-13T02:12:00;35.90;;;20.83;;
66628;SDS011;53532;53.084;6.352;2023-02-13T02:14:27;37.92;;;21.42;;
66628;SDS011;53532;53.084;6.352;2023-02-13T02:16:54;36.92;;;21.15;;
66628;SDS011;53532;53.084;6.352;2023-02-13T02:19:23;36.53;;;21.38;;
66628;SDS011;53532;53.084;6.352;2023-02-13T02:21:59;37.08;;;21.98;;
66628;SDS011;53532;53.084;6.352;2023-02-13T02:27:22;37.63;;;21.55;;
66628;SDS011;53532;53.084;6.352;2023-02-13T02:30:06;38.80;;;21.95;;
66628;SDS011;53532;53.084;6.352;2023-02-13T02:35:24;40.75;;;21.98;;
66628;SDS011;53532;53.084;6.352;2023-02-13T02:37:57;37.22;;;21.58;;
66628;SDS011;53532;53.084;6.352;2023-02-13T02:40:28;36.00;;;21.17;;
66628;SDS011;53532;53.084;6.352;2023-02-13T02:42:59;39.35;;;21.23;;
66628;SDS011;53532;53.084;6.352;2023-02-13T02:45:27;37.85;;;22.15;;
66628;SDS011;53532;53.084;6.352;2023-02-13T02:47:55;38.30;;;21.25;;
66628;SDS011;53532;53.084;6.352;2023-02-13T02:50:45;37.67;;;21.35;;
66628;SDS011;53532;53.084;6.352;2023-02-13T02:53:17;38.75;;;22.02;;
66628;SDS011;53532;53.084;6.352;2023-02-13T02:55:49;39.03;;;21.85;;
66628;SDS011;53532;53.084;6.352;2023-02-13T02:58:18;41.03;;;22.63;;
66628;SDS011;53532;53.084;6.352;2023-02-13T03:01:05;39.08;;;21.25;;
66628;SDS011;53532;53.084;6.352;2023-02-13T03:03:51;35.72;;;21.10;;
66628;SDS011;53532;53.084;6.352;2023-02-13T03:06:42;37.70;;;21.25;;
66628;SDS011;53532;53.084;6.352;2023-02-13T03:09:10;37.75;;;21.52;;
66628;SDS011;53532;53.084;6.352;2023-02-13T03:11:57;40.70;;;22.50;;
66628;SDS011;53532;53.084;6.352;2023-02-13T03:14:42;37.00;;;21.77;;
66628;SDS011;53532;53.084;6.352;2023-02-13T03:17:09;40.53;;;23.02;;
66628;SDS011;53532;53.084;6.352;2023-02-13T03:19:56;36.85;;;20.98;;
66628;SDS011;53532;53.084;6.352;2023-02-13T03:22:47;39.85;;;22.10;;
66628;SDS011;53532;53.084;6.352;2023-02-13T03:25:17;39.17;;;21.73;;
66628;SDS011;53532;53.084;6.352;2023-02-13T03:27:59;36.85;;;21.60;;
66628;SDS011;53532;53.084;6.352;2023-02-13T03:30:48;37.17;;;21.13;;
66628;SDS011;53532;53.084;6.352;2023-02-13T03:36:00;36.92;;;21.25;;
66628;SDS011;53532;53.084;6.352;2023-02-13T03:38:50;35.15;;;20.85;;
66628;SDS011;53532;53.084;6.352;2023-02-13T03:41:20;37.67;;;21.30;;
66628;SDS011;53532;53.084;6.352;2023-02-13T03:43:51;38.20;;;22.20;;
66628;SDS011;53532;53.084;6.352;2023-02-13T03:46:19;40.80;;;22.20;;
66628;SDS011;53532;53.084;6.352;2023-02-13T03:48:46;42.40;;;22.05;;
66628;SDS011;53532;53.084;6.352;2023-02-13T03:51:32;38.75;;;21.92;;
66628;SDS011;53532;53.084;6.352;2023-02-13T03:54:02;38.28;;;22.85;;
66628;SDS011;53532;53.084;6.352;2023-02-13T03:56:29;39.50;;;22.90;;
66628;SDS011;53532;53.084;6.352;2023-02-13T03:59:17;35.58;;;21.63;;
66628;SDS011;53532;53.084;6.352;2023-02-13T04:01:47;35.80;;;21.52;;
66628;SDS011;53532;53.084;6.352;2023-02-13T04:04:16;38.13;;;22.27;;
66628;SDS011;53532;53.084;6.352;2023-02-13T04:06:45;36.17;;;20.75;;
66628;SDS011;53532;53.084;6.352;2023-02-13T04:09:14;38.40;;;21.30;;
66628;SDS011;53532;53.084;6.352;2023-02-13T04:11:42;37.97;;;20.98;;
66628;SDS011;53532;53.084;6.352;2023-02-13T04:14:12;37.90;;;21.60;;
66628;SDS011;53532;53.084;6.352;2023-02-13T04:16:41;38.95;;;21.05;;
66628;SDS011;53532;53.084;6.352;2023-02-13T04:19:08;36.95;;;21.30;;
66628;SDS011;53532;53.084;6.352;2023-02-13T04:21:35;36.65;;;20.20;;
66628;SDS011;53532;53.084;6.352;2023-02-13T04:24:02;39.05;;;21.05;;
66628;SDS011;53532;53.084;6.352;2023-02-13T04:26:32;39.90;;;20.80;;
66628;SDS011;53532;53.084;6.352;2023-02-13T04:28:59;37.72;;;21.83;;
66628;SDS011;53532;53.084;6.352;2023-02-13T04:31:25;41.13;;;21.27;;
66628;SDS011;53532;53.084;6.352;2023-02-13T04:33:51;37.85;;;21.55;;
66628;SDS011;53532;53.084;6.352;2023-02-13T04:36:18;41.33;;;22.92;;
66628;SDS011;53532;53.084;6.352;2023-02-13T04:38:44;38.03;;;21.00;;
66628;SDS011;53532;53.084;6.352;2023-02-13T04:41:10;38.83;;;21.95;;
66628;SDS011;53532;53.084;6.352;2023-02-13T04:43:37;37.95;;;21.65;;
66628;SDS011;53532;53.084;6.352;2023-02-13T04:46:04;41.78;;;22.95;;
66628;SDS011;53532;53.084;6.352;2023-02-13T04:48:30;42.35;;;22.77;;
66628;SDS011;53532;53.084;6.352;2023-02-13T04:50:56;37.63;;;20.75;;
66628;SDS011;53532;53.084;6.352;2023-02-13T04:53:22;37.85;;;20.70;;
66628;SDS011;53532;53.084;6.352;2023-02-13T04:55:48;39.72;;;20.77;;
66628;SDS011;53532;53.084;6.352;2023-02-13T04:58:15;41.20;;;21.08;;
66628;SDS011;53532;53.084;6.352;2023-02-13T05:00:42;36.83;;;20.38;;
66628;SDS011;53532;53.084;6.352;2023-02-13T05:03:09;39.50;;;21.23;;
66628;SDS011;53532;53.084;6.352;2023-02-13T05:05:36;41.47;;;21.42;;
66628;SDS011;53532;53.084;6.352;2023-02-13T05:08:02;38.25;;;20.17;;
66628;SDS011;53532;53.084;6.352;2023-02-13T05:10:29;40.78;;;21.50;;
66628;SDS011;53532;53.084;6.352;2023-02-13T05:12:55;37.25;;;20.85;;
66628;SDS011;53532;53.084;6.352;2023-02-13T05:15:21;41.38;;;21.27;;
66628;SDS011;53532;53.084;6.352;2023-02-13T05:17:49;36.75;;;20.15;;
66628;SDS011;53532;53.084;6.352;2023-02-13T05:20:15;41.97;;;22.02;;
66628;SDS011;53532;53.084;6.352;2023-02-13T05:22:45;38.08;;;21.13;;
66628;SDS011;53532;53.084;6.352;2023-02-13T05:25:30;39.55;;;21.52;;
66628;SDS011;53532;53.084;6.352;2023-02-13T05:27:56;40.28;;;20.42;;
66628;SDS011;53532;53.084;6.352;2023-02-13T05:30:23;41.30;;;22.67;;
66628;SDS011;53532;53.084;6.352;2023-02-13T05:32:51;40.50;;;21.20;;
66628;SDS011;53532;53.084;6.352;2023-02-13T05:35:18;37.42;;;20.40;;
66628;SDS011;53532;53.084;6.352;2023-02-13T05:37:45;36.85;;;20.67;;
66628;SDS011;53532;53.084;6.352;2023-02-13T05:40:11;38.05;;;21.23;;
66628;SDS011;53532;53.084;6.352;2023-02-13T05:42:38;39.33;;;21.77;;
66628;SDS011;53532;53.084;6.352;2023-02-13T05:45:05;41.90;;;21.73;;
66628;SDS011;53532;53.084;6.352;2023-02-13T05:47:31;41.03;;;21.92;;
66628;SDS011;53532;53.084;6.352;2023-02-13T05:49:58;39.70;;;21.73;;
66628;SDS011;53532;53.084;6.352;2023-02-13T05:52:25;41.17;;;21.92;;
66628;SDS011;53532;53.084;6.352;2023-02-13T05:54:51;43.92;;;22.88;;
66628;SDS011;53532;53.084;6.352;2023-02-13T05:57:17;39.70;;;21.60;;
66628;SDS011;53532;53.084;6.352;2023-02-13T05:59:43;41.83;;;22.13;;
66628;SDS011;53532;53.084;6.352;2023-02-13T06:02:09;37.20;;;20.83;;
66628;SDS011;53532;53.084;6.352;2023-02-13T06:04:36;42.45;;;22.30;;
66628;SDS011;53532;53.084;6.352;2023-02-13T06:07:03;37.25;;;20.55;;
66628;SDS011;53532;53.084;6.352;2023-02-13T06:09:29;39.20;;;20.88;;
66628;SDS011;53532;53.084;6.352;2023-02-13T06:11:56;39.33;;;20.88;;
66628;SDS011;53532;53.084;6.352;2023-02-13T06:14:22;41.00;;;21.90;;
66628;SDS011;53532;53.084;6.352;2023-02-13T06:16:48;41.63;;;21.73;;
66628;SDS011;53532;53.084;6.352;2023-02-13T06:19:14;42.30;;;22.05;;
66628;SDS011;53532;53.084;6.352;2023-02-13T06:21:40;45.00;;;22.70;;
66628;SDS011;53532;53.084;6.352;2023-02-13T06:24:08;38.88;;;20.77;;
66628;SDS011;53532;53.084;6.352;2023-02-13T06:26:34;42.20;;;21.35;;
66628;SDS011;53532;53.084;6.352;2023-02-13T06:29:00;39.67;;;20.70;;
66628;SDS011;53532;53.084;6.352;2023-02-13T06:31:26;38.92;;;21.25;;
66628;SDS011;53532;53.084;6.352;2023-02-13T06:33:52;42.35;;;23.13;;
66628;SDS011;53532;53.084;6.352;2023-02-13T06:36:19;41.83;;;22.17;;
66628;SDS011;53532;53.084;6.352;2023-02-13T06:38:45;41.83;;;22.50;;
66628;SDS011;53532;53.084;6.352;2023-02-13T06:41:15;42.10;;;21.95;;
66628;SDS011;53532;53.084;6.352;2023-02-13T06:43:41;42.53;;;21.52;;
66628;SDS011;53532;53.084;6.352;2023-02-13T06:46:07;41.35;;;21.63;;
66628;SDS011;53532;53.084;6.352;2023-02-13T06:48:34;43.67;;;22.13;;
66628;SDS011;53532;53.084;6.352;2023-02-13T06:51:00;43.13;;;20.83;;
66628;SDS011;53532;53.084;6.352;2023-02-13T06:53:26;37.60;;;19.52;;
66628;SDS011;53532;53.084;6.352;2023-02-13T06:55:53;40.92;;;21.10;;
66628;SDS011;53532;53.084;6.352;2023-02-13T06:58:21;40.15;;;21.38;;
66628;SDS011;53532;53.084;6.352;2023-02-13T07:00:48;38.88;;;20.48;;
66628;SDS011;53532;53.084;6.352;2023-02-13T07:03:14;40.25;;;20.67;;
66628;SDS011;53532;53.084;6.352;2023-02-13T07:05:41;38.65;;;20.73;;
66628;SDS011;53532;53.084;6.352;2023-02-13T07:08:07;38.70;;;21.05;;
66628;SDS011;53532;53.084;6.352;2023-02-13T07:10:35;41.03;;;21.77;;
66628;SDS011;53532;53.084;6.352;2023-02-13T07:13:02;40.97;;;21.02;;
66628;SDS011;53532;53.084;6.352;2023-02-13T07:15:30;41.08;;;21.38;;
66628;SDS011;53532;53.084;6.352;2023-02-13T07:17:56;38.75;;;21.15;;
66628;SDS011;53532;53.084;6.352;2023-02-13T07:20:23;42.08;;;21.13;;
66628;SDS011;53532;53.084;6.352;2023-02-13T07:22:49;41.78;;;21.85;;
66628;SDS011;53532;53.084;6.352;2023-02-13T07:25:15;43.88;;;21.85;;
66628;SDS011;53532;53.084;6.352;2023-02-13T07:27:43;42.28;;;21.42;;
66628;SDS011;53532;53.084;6.352;2023-02-13T07:30:10;45.97;;;22.90;;
66628;SDS011;53532;53.084;6.352;2023-02-13T07:32:38;40.72;;;21.17;;
66628;SDS011;53532;53.084;6.352;2023-02-13T07:35:04;42.13;;;22.23;;
66628;SDS011;53532;53.084;6.352;2023-02-13T07:37:31;44.60;;;24.08;;
66628;SDS011;53532;53.084;6.352;2023-02-13T07:39:57;44.78;;;21.90;;
66628;SDS011;53532;53.084;6.352;2023-02-13T07:42:23;46.40;;;22.88;;
66628;SDS011;53532;53.084;6.352;2023-02-13T07:44:49;42.25;;;23.17;;
66628;SDS011;53532;53.084;6.352;2023-02-13T07:47:15;43.03;;;21.95;;
66628;SDS011;53532;53.084;6.352;2023-02-13T07:49:45;43.50;;;23.08;;
66628;SDS011;53532;53.084;6.352;2023-02-13T07:52:11;44.47;;;23.58;;
66628;SDS011;53532;53.084;6.352;2023-02-13T07:54:37;43.03;;;22.67;;
66628;SDS011;53532;53.084;6.352;2023-02-13T07:57:11;47.17;;;23.45;;
66628;SDS011;53532;53.084;6.352;2023-02-13T07:59:37;44.85;;;24.35;;
66628;SDS011;53532;53.084;6.352;2023-02-13T08:02:03;43.75;;;22.70;;
66628;SDS011;53532;53.084;6.352;2023-02-13T08:04:29;42.03;;;22.35;;
66628;SDS011;53532;53.084;6.352;2023-02-13T08:06:57;43.88;;;23.48;;
66628;SDS011;53532;53.084;6.352;2023-02-13T08:09:23;43.67;;;23.83;;
66628;SDS011;53532;53.084;6.352;2023-02-13T08:12:08;40.97;;;22.40;;
66628;SDS011;53532;53.084;6.352;2023-02-13T08:14:35;37.90;;;21.38;;
66628;SDS011;53532;53.084;6.352;2023-02-13T08:17:01;38.58;;;22.33;;
66628;SDS011;53532;53.084;6.352;2023-02-13T08:19:28;43.60;;;23.20;;
66628;SDS011;53532;53.084;6.352;2023-02-13T08:21:54;38.05;;;22.10;;
66628;SDS011;53532;53.084;6.352;2023-02-13T08:24:22;37.85;;;22.98;;
66628;SDS011;53532;53.084;6.352;2023-02-13T08:26:48;39.15;;;22.65;;
66628;SDS011;53532;53.084;6.352;2023-02-13T08:29:14;41.65;;;23.35;;
66628;SDS011;53532;53.084;6.352;2023-02-13T08:31:41;36.97;;;22.33;;
66628;SDS011;53532;53.084;6.352;2023-02-13T08:34:07;38.47;;;23.42;;
66628;SDS011;53532;53.084;6.352;2023-02-13T08:36:34;41.10;;;24.20;;
66628;SDS011;53532;53.084;6.352;2023-02-13T08:39:00;38.72;;;23.13;;
66628;SDS011;53532;53.084;6.352;2023-02-13T08:41:28;38.40;;;23.52;;
66628;SDS011;53532;53.084;6.352;2023-02-13T08:43:54;39.47;;;23.20;;
66628;SDS011;53532;53.084;6.352;2023-02-13T08:46:20;39.33;;;22.80;;
66628;SDS011;53532;53.084;6.352;2023-02-13T08:48:46;39.58;;;23.80;;
66628;SDS011;53532;53.084;6.352;2023-02-13T08:51:12;37.13;;;22.52;;
66628;SDS011;53532;53.084;6.352;2023-02-13T08:53:39;37.17;;;23.02;;
66628;SDS011;53532;53.084;6.352;2023-02-13T08:56:06;35.63;;;22.10;;
66628;SDS011;53532;53.084;6.352;2023-02-13T08:58:34;41.97;;;23.85;;
66628;SDS011;53532;53.084;6.352;2023-02-13T09:01:03;40.13;;;22.92;;
66628;SDS011;53532;53.084;6.352;2023-02-13T09:03:29;40.72;;;23.55;;
66628;SDS011;53532;53.084;6.352;2023-02-13T09:05:57;38.85;;;22.17;;
66628;SDS011;53532;53.084;6.352;2023-02-13T09:08:24;37.75;;;22.17;;
66628;SDS011;53532;53.084;6.352;2023-02-13T09:10:54;38.63;;;22.63;;
66628;SDS011;53532;53.084;6.352;2023-02-13T09:13:21;38.65;;;22.80;;
66628;SDS011;53532;53.084;6.352;2023-02-13T09:15:49;38.65;;;22.15;;
66628;SDS011;53532;53.084;6.352;2023-02-13T09:18:16;37.80;;;21.88;;
66628;SDS011;53532;53.084;6.352;2023-02-13T09:20:45;38.97;;;23.45;;
66628;SDS011;53532;53.084;6.352;2023-02-13T09:23:11;37.47;;;22.83;;
66628;SDS011;53532;53.084;6.352;2023-02-13T09:25:38;37.83;;;22.88;;
66628;SDS011;53532;53.084;6.352;2023-02-13T09:28:04;37.40;;;21.75;;
66628;SDS011;53532;53.084;6.352;2023-02-13T09:30:30;40.55;;;22.80;;
66628;SDS011;53532;53.084;6.352;2023-02-13T09:32:57;42.20;;;23.80;;
66628;SDS011;53532;53.084;6.352;2023-02-13T09:35:24;38.20;;;22.42;;
66628;SDS011;53532;53.084;6.352;2023-02-13T09:37:53;38.35;;;22.75;;
66628;SDS011;53532;53.084;6.352;2023-02-13T09:40:22;37.10;;;20.88;;
66628;SDS011;53532;53.084;6.352;2023-02-13T09:42:50;37.72;;;21.98;;
66628;SDS011;53532;53.084;6.352;2023-02-13T09:45:17;37.67;;;21.33;;
66628;SDS011;53532;53.084;6.352;2023-02-13T09:47:45;37.03;;;21.30;;
66628;SDS011;53532;53.084;6.352;2023-02-13T09:50:13;38.63;;;22.05;;
66628;SDS011;53532;53.084;6.352;2023-02-13T09:52:42;36.05;;;21.30;;
66628;SDS011;53532;53.084;6.352;2023-02-13T09:55:13;35.55;;;21.38;;
66628;SDS011;53532;53.084;6.352;2023-02-13T09:57:41;36.28;;;21.27;;
66628;SDS011;53532;53.084;6.352;2023-02-13T10:00:09;34.80;;;21.15;;
66628;SDS011;53532;53.084;6.352;2023-02-13T10:05:35;35.40;;;21.70;;
66628;SDS011;53532;53.084;6.352;2023-02-13T10:08:05;33.80;;;20.52;;
66628;SDS011;53532;53.084;6.352;2023-02-13T10:10:38;33.08;;;20.58;;
66628;SDS011;53532;53.084;6.352;2023-02-13T10:13:16;36.05;;;20.02;;
66628;SDS011;53532;53.084;6.352;2023-02-13T10:15:48;33.15;;;19.75;;
66628;SDS011;53532;53.084;6.352;2023-02-13T10:18:16;34.40;;;20.58;;
66628;SDS011;53532;53.084;6.352;2023-02-13T10:20:45;34.47;;;21.08;;
66628;SDS011;53532;53.084;6.352;2023-02-13T10:23:16;34.10;;;21.08;;
66628;SDS011;53532;53.084;6.352;2023-02-13T10:25:45;32.75;;;21.20;;
66628;SDS011;53532;53.084;6.352;2023-02-13T10:28:14;37.30;;;21.73;;
66628;SDS011;53532;53.084;6.352;2023-02-13T10:30:47;36.58;;;21.17;;
66628;SDS011;53532;53.084;6.352;2023-02-13T10:33:19;34.72;;;21.50;;
66628;SDS011;53532;53.084;6.352;2023-02-13T10:35:49;33.78;;;20.92;;
66628;SDS011;53532;53.084;6.352;2023-02-13T10:38:17;36.40;;;22.00;;
66628;SDS011;53532;53.084;6.352;2023-02-13T10:40:48;33.90;;;21.42;;
66628;SDS011;53532;53.084;6.352;2023-02-13T10:43:19;35.40;;;21.60;;
66628;SDS011;53532;53.084;6.352;2023-02-13T10:45:51;36.03;;;20.92;;
66628;SDS011;53532;53.084;6.352;2023-02-13T10:48:37;37.03;;;21.52;;
66628;SDS011;53532;53.084;6.352;2023-02-13T10:51:06;37.20;;;21.33;;
66628;SDS011;53532;53.084;6.352;2023-02-13T10:53:38;38.25;;;21.77;;
66628;SDS011;53532;53.084;6.352;2023-02-13T10:56:13;36.92;;;22.05;;
66628;SDS011;53532;53.084;6.352;2023-02-13T10:58:47;34.22;;;19.83;;
66628;SDS011;53532;53.084;6.352;2023-02-13T11:01:16;36.08;;;21.45;;
66628;SDS011;53532;53.084;6.352;2023-02-13T11:03:44;33.60;;;20.80;;
66628;SDS011;53532;53.084;6.352;2023-02-13T11:06:13;35.33;;;20.77;;
66628;SDS011;53532;53.084;6.352;2023-02-13T11:08:42;33.50;;;20.27;;
66628;SDS011;53532;53.084;6.352;2023-02-13T11:13:50;34.88;;;21.13;;
66628;SDS011;53532;53.084;6.352;2023-02-13T11:16:36;36.95;;;22.25;;
66628;SDS011;53532;53.084;6.352;2023-02-13T11:19:03;31.10;;;19.50;;
66628;SDS011;53532;53.084;6.352;2023-02-13T11:21:32;36.72;;;21.60;;
66628;SDS011;53532;53.084;6.352;2023-02-13T11:24:00;35.95;;;20.42;;
66628;SDS011;53532;53.084;6.352;2023-02-13T11:26:30;33.88;;;20.80;;
66628;SDS011;53532;53.084;6.352;2023-02-13T11:28:59;33.08;;;20.50;;
66628;SDS011;53532;53.084;6.352;2023-02-13T11:31:26;33.15;;;19.83;;
66628;SDS011;53532;53.084;6.352;2023-02-13T11:33:54;34.80;;;20.80;;
66628;SDS011;53532;53.084;6.352;2023-02-13T11:36:25;32.47;;;19.48;;
66628;SDS011;53532;53.084;6.352;2023-02-13T11:39:01;35.53;;;20.30;;
66628;SDS011;53532;53.084;6.352;2023-02-13T11:41:29;37.30;;;21.65;;
66628;SDS011;53532;53.084;6.352;2023-02-13T11:43:55;31.83;;;19.00;;
66628;SDS011;53532;53.084;6.352;2023-02-13T11:46:25;35.78;;;20.67;;
66628;SDS011;53532;53.084;6.352;2023-02-13T11:48:56;34.92;;;19.58;;
66628;SDS011;53532;53.084;6.352;2023-02-13T11:51:33;33.70;;;19.63;;
66628;SDS011;53532;53.084;6.352;2023-02-13T11:54:01;33.92;;;20.05;;
66628;SDS011;53532;53.084;6.352;2023-02-13T11:56:27;35.30;;;20.60;;
66628;SDS011;53532;53.084;6.352;2023-02-13T11:58:59;35.58;;;20.65;;
66628;SDS011;53532;53.084;6.352;2023-02-13T12:01:26;35.53;;;20.63;;
66628;SDS011;53532;53.084;6.352;2023-02-13T12:03:59;34.63;;;20.10;;
66628;SDS011;53532;53.084;6.352;2023-02-13T12:06:26;34.35;;;20.17;;
66628;SDS011;53532;53.084;6.352;2023-02-13T12:08:52;32.80;;;19.95;;
66628;SDS011;53532;53.084;6.352;2023-02-13T12:11:21;31.75;;;20.15;;
66628;SDS011;53532;53.084;6.352;2023-02-13T12:13:49;36.55;;;21.35;;
66628;SDS011;53532;53.084;6.352;2023-02-13T12:16:19;33.35;;;18.85;;
66628;SDS011;53532;53.084;6.352;2023-02-13T12:18:48;33.70;;;19.30;;
66628;SDS011;53532;53.084;6.352;2023-02-13T12:21:19;32.35;;;18.50;;
66628;SDS011;53532;53.084;6.352;2023-02-13T12:23:52;33.63;;;18.95;;
66628;SDS011;53532;53.084;6.352;2023-02-13T12:26:25;31.77;;;18.75;;
66628;SDS011;53532;53.084;6.352;2023-02-13T12:28:57;32.40;;;18.95;;
66628;SDS011;53532;53.084;6.352;2023-02-13T12:31:33;33.50;;;20.23;;
66628;SDS011;53532;53.084;6.352;2023-02-13T12:34:07;30.08;;;18.65;;
66628;SDS011;53532;53.084;6.352;2023-02-13T12:36:41;29.52;;;18.45;;
66628;SDS011;53532;53.084;6.352;2023-02-13T12:39:16;32.95;;;19.25;;
66628;SDS011;53532;53.084;6.352;2023-02-13T12:41:47;31.98;;;19.27;;
66628;SDS011;53532;53.084;6.352;2023-02-13T12:44:18;31.67;;;17.95;;
66628;SDS011;53532;53.084;6.352;2023-02-13T12:46:49;30.75;;;18.13;;
66628;SDS011;53532;53.084;6.352;2023-02-13T12:49:22;31.13;;;18.38;;
66628;SDS011;53532;53.084;6.352;2023-02-13T12:51:54;29.40;;;17.92;;
66628;SDS011;53532;53.084;6.352;2023-02-13T12:54:31;30.98;;;18.70;;
66628;SDS011;53532;53.084;6.352;2023-02-13T12:57:08;32.20;;;18.83;;
66628;SDS011;53532;53.084;6.352;2023-02-13T12:59:43;31.05;;;19.15;;
66628;SDS011;53532;53.084;6.352;2023-02-13T13:02:30;32.35;;;18.77;;
66628;SDS011;53532;53.084;6.352;2023-02-13T13:05:05;36.75;;;19.77;;
66628;SDS011;53532;53.084;6.352;2023-02-13T13:07:39;29.40;;;18.50;;
66628;SDS011;53532;53.084;6.352;2023-02-13T13:10:13;30.23;;;19.05;;
66628;SDS011;53532;53.084;6.352;2023-02-13T13:12:46;31.33;;;19.48;;
66628;SDS011;53532;53.084;6.352;2023-02-13T13:15:17;31.40;;;18.63;;
66628;SDS011;53532;53.084;6.352;2023-02-13T13:17:49;31.52;;;20.45;;
66628;SDS011;53532;53.084;6.352;2023-02-13T13:23:08;32.75;;;20.40;;
66628;SDS011;53532;53.084;6.352;2023-02-13T13:25:39;31.17;;;19.75;;
66628;SDS011;53532;53.084;6.352;2023-02-13T13:28:10;34.05;;;20.38;;
66628;SDS011;53532;53.084;6.352;2023-02-13T13:30:38;30.98;;;19.65;;
66628;SDS011;53532;53.084;6.352;2023-02-13T13:33:06;31.38;;;19.95;;
66628;SDS011;53532;53.084;6.352;2023-02-13T13:35:35;30.75;;;19.27;;
66628;SDS011;53532;53.084;6.352;2023-02-13T13:38:03;31.55;;;19.17;;
66628;SDS011;53532;53.084;6.352;2023-02-13T13:40:33;30.15;;;19.95;;
66628;SDS011;53532;53.084;6.352;2023-02-13T13:43:02;30.90;;;19.25;;
66628;SDS011;53532;53.084;6.352;2023-02-13T13:45:33;31.88;;;20.60;;
66628;SDS011;53532;53.084;6.352;2023-02-13T13:48:08;31.25;;;19.80;;
66628;SDS011;53532;53.084;6.352;2023-02-13T13:50:40;32.42;;;20.50;;
66628;SDS011;53532;53.084;6.352;2023-02-13T13:53:10;29.63;;;19.70;;
66628;SDS011;53532;53.084;6.352;2023-02-13T13:58:31;30.50;;;19.92;;
66628;SDS011;53532;53.084;6.352;2023-02-13T14:03:48;32.15;;;19.70;;
66628;SDS011;53532;53.084;6.352;2023-02-13T14:06:15;28.77;;;19.52;;
66628;SDS011;53532;53.084;6.352;2023-02-13T14:08:57;32.22;;;20.75;;
66628;SDS011;53532;53.084;6.352;2023-02-13T14:11:24;31.55;;;20.08;;
66628;SDS011;53532;53.084;6.352;2023-02-13T14:13:51;32.55;;;20.92;;
66628;SDS011;53532;53.084;6.352;2023-02-13T14:18:59;31.20;;;20.90;;
66628;SDS011;53532;53.084;6.352;2023-02-13T14:21:26;33.30;;;21.58;;
66628;SDS011;53532;53.084;6.352;2023-02-13T14:23:53;31.55;;;20.33;;
66628;SDS011;53532;53.084;6.352;2023-02-13T14:26:27;30.23;;;20.55;;
66628;SDS011;53532;53.084;6.352;2023-02-13T14:28:56;32.28;;;20.75;;
66628;SDS011;53532;53.084;6.352;2023-02-13T14:31:24;32.50;;;21.15;;
66628;SDS011;53532;53.084;6.352;2023-02-13T14:33:55;32.75;;;21.70;;
66628;SDS011;53532;53.084;6.352;2023-02-13T14:36:25;35.13;;;21.33;;
66628;SDS011;53532;53.084;6.352;2023-02-13T14:38:56;30.65;;;20.48;;
66628;SDS011;53532;53.084;6.352;2023-02-13T14:41:43;32.92;;;20.90;;
66628;SDS011;53532;53.084;6.352;2023-02-13T14:44:17;32.33;;;21.42;;
66628;SDS011;53532;53.084;6.352;2023-02-13T14:46:44;31.05;;;21.25;;
66628;SDS011;53532;53.084;6.352;2023-02-13T14:49:16;32.38;;;21.42;;
66628;SDS011;53532;53.084;6.352;2023-02-13T14:51:49;31.98;;;21.58;;
66628;SDS011;53532;53.084;6.352;2023-02-13T14:54:18;32.20;;;21.55;;
66628;SDS011;53532;53.084;6.352;2023-02-13T14:56:50;33.38;;;21.38;;
66628;SDS011;53532;53.084;6.352;2023-02-13T14:59:21;35.53;;;22.00;;
66628;SDS011;53532;53.084;6.352;2023-02-13T15:01:52;31.70;;;20.77;;